»·PEaware :: WAT605 KLAX-KSJC

WAT605 :: KLAX-KSJC

FLIGHT INFORMATION

Flight Status: Arrived
Operator:
Walker Air Transport
More flights by this operator :: More flights under this callsign
Pilot: Kaleb W. (11686)
Aircraft: AIRBUS A320
(A320)
More flights by this aircraft type
Origin: KLAX Los Angeles Intl
United States
Destination: KSJC Mineta San Jose Intl
United States
More flights between these airports :: More routes between these airports
Route: SUMMR2 SCTRR TROXX SILCN5
File this flight plan on PilotEdge
Remarks: RMK / SIMBRIEF
Altitude:
(Current/Filed)
36,000ft
Speed:
(Current/Filed)
447kts
Departed: 02-Feb-22 02:33 PM
Arrived: 02-Feb-22 03:30 PM
Distance/Time
Traveled:
268nm/0:57
Distance/Time
To Go:
Arrived

Flight Plot

Page will automatically refresh every two minutes.

Flight plan parsing failed; only flown route is shown


Map Options




Map Legend


Flown Route
Filed Route
Departure Airport
Arrival Airport
Navaid (VOR, NDB)
Fix

Horizontal Profiles

Position Reports

Time Latitude Longitude Heading Altitude Ground
Speed
02-Feb-22 14:07 33.940797 -118.402501 119 121ft 0kts
02-Feb-22 14:08 33.940797 -118.402501 119 121ft 0kts
02-Feb-22 14:09 33.940797 -118.402501 119 121ft 0kts
02-Feb-22 14:10 33.940797 -118.402501 119 121ft 0kts
02-Feb-22 14:11 33.940797 -118.402501 119 121ft 0kts
02-Feb-22 14:12 33.940797 -118.402501 119 121ft 0kts
02-Feb-22 14:13 33.940797 -118.402501 119 121ft 0kts
02-Feb-22 14:14 33.940797 -118.402501 119 121ft 0kts
02-Feb-22 14:15 33.940797 -118.402501 119 121ft 0kts
02-Feb-22 14:16 33.940797 -118.402501 119 121ft 0kts
02-Feb-22 14:17 33.940797 -118.402501 119 121ft 0kts
02-Feb-22 14:18 33.940797 -118.402501 119 121ft 0kts
02-Feb-22 14:19 33.941027 -118.402987 119 120ft 2kts
02-Feb-22 14:20 33.941302 -118.403240 175 121ft 0kts
02-Feb-22 14:21 33.941302 -118.403240 175 121ft 0kts
02-Feb-22 14:22 33.941302 -118.403240 175 121ft 0kts
02-Feb-22 14:23 33.941063 -118.403211 174 121ft 4kts
02-Feb-22 14:24 33.940419 -118.403090 170 121ft 0kts
02-Feb-22 14:25 33.939552 -118.402789 135 121ft 15kts
02-Feb-22 14:26 33.939148 -118.396496 84 111ft 24kts
02-Feb-22 14:27 33.939881 -118.389493 83 104ft 20kts
02-Feb-22 14:28 33.940655 -118.381670 82 101ft 27kts
02-Feb-22 14:29 33.940680 -118.380745 104 101ft 0kts
02-Feb-22 14:30 33.940680 -118.380745 104 101ft 0kts
02-Feb-22 14:31 33.940524 -118.380390 142 101ft 6kts
02-Feb-22 14:32 33.937495 -118.403140 264 504ft 177kts
02-Feb-22 14:33 33.930077 -118.472370 263 3268ft 252kts
02-Feb-22 14:34 33.923442 -118.557772 264 5034ft 258kts
02-Feb-22 14:35 33.917569 -118.644720 271 6601ft 268kts
02-Feb-22 14:36 33.917396 -118.736978 272 10232ft 287kts
02-Feb-22 14:37 33.917362 -118.843453 275 12514ft 340kts
02-Feb-22 14:38 33.920756 -118.958750 277 15686ft 347kts
02-Feb-22 14:39 33.947738 -119.065536 306 18443ft 337kts
02-Feb-22 14:40 33.997994 -119.162965 306 20784ft 347kts
02-Feb-22 14:41 34.069997 -119.237795 327 22875ft 347kts
02-Feb-22 14:42 34.150198 -119.306849 327 24812ft 356kts
02-Feb-22 14:43 34.231833 -119.377269 327 26569ft 365kts
02-Feb-22 14:44 34.315135 -119.449294 327 28187ft 372kts
02-Feb-22 14:45 34.400157 -119.522987 327 29605ft 379kts
02-Feb-22 14:46 34.484730 -119.601785 325 30858ft 387kts
02-Feb-22 14:47 34.570534 -119.682733 325 31985ft 393kts
02-Feb-22 14:48 34.656004 -119.763625 325 33457ft 386kts
02-Feb-22 14:49 34.740330 -119.843616 325 34702ft 383kts
02-Feb-22 14:50 34.824224 -119.923394 325 35768ft 381kts
02-Feb-22 14:51 34.907741 -120.003039 325 36132ft 377kts
02-Feb-22 14:52 34.989675 -120.081388 324 36147ft 372kts
02-Feb-22 14:53 35.070601 -120.158964 324 36161ft 366kts
02-Feb-22 14:54 35.150490 -120.235732 324 36148ft 365kts
02-Feb-22 14:55 35.231550 -120.310813 325 36158ft 366kts
02-Feb-22 14:56 35.313227 -120.385591 325 36172ft 366kts
02-Feb-22 14:57 35.394756 -120.460425 325 36181ft 367kts
02-Feb-22 14:58 35.476509 -120.535662 325 35326ft 367kts
02-Feb-22 14:59 35.560392 -120.608269 329 34376ft 369kts
02-Feb-22 15:00 35.647156 -120.676316 328 33393ft 368kts
02-Feb-22 15:01 35.732852 -120.743701 329 32405ft 363kts
02-Feb-22 15:02 35.817509 -120.810423 329 31410ft 360kts
02-Feb-22 15:03 35.901524 -120.876807 329 30580ft 356kts
02-Feb-22 15:04 35.984694 -120.942678 329 29755ft 353kts
02-Feb-22 15:05 36.063429 -121.013820 326 28375ft 342kts
02-Feb-22 15:06 36.137672 -121.084446 326 26441ft 332kts
02-Feb-22 15:07 36.209844 -121.153249 326 24541ft 323kts
02-Feb-22 15:08 36.280150 -121.220439 326 22674ft 315kts
02-Feb-22 15:09 36.348607 -121.286011 327 20838ft 307kts
02-Feb-22 15:10 36.415261 -121.350173 327 19056ft 299kts
02-Feb-22 15:11 36.480126 -121.412786 327 17321ft 292kts
02-Feb-22 15:12 36.551968 -121.453182 345 15376ft 285kts
02-Feb-22 15:13 36.625816 -121.484380 345 13747ft 276kts
02-Feb-22 15:14 36.697378 -121.514666 345 12175ft 267kts
02-Feb-22 15:15 36.767006 -121.544183 345 10655ft 262kts
02-Feb-22 15:16 36.834053 -121.572707 344 9776ft 241kts
02-Feb-22 15:17 36.896350 -121.599222 344 8598ft 233kts
02-Feb-22 15:18 36.957795 -121.625316 345 7405ft 232kts
02-Feb-22 15:19 37.018565 -121.651094 344 6245ft 229kts
02-Feb-22 15:21 37.078630 -121.676630 345 5109ft 227kts
02-Feb-22 15:22 37.138519 -121.702134 344 4155ft 222kts
02-Feb-22 15:23 37.189543 -121.739563 323 3613ft 207kts
02-Feb-22 15:24 37.229761 -121.784082 324 3218ft 183kts
02-Feb-22 15:25 37.263522 -121.821112 322 2478ft 139kts
02-Feb-22 15:26 37.290288 -121.850502 321 1784ft 126kts
02-Feb-22 15:27 37.316297 -121.879021 320 1112ft 122kts
02-Feb-22 15:28 37.341942 -121.907118 320 465ft 125kts
02-Feb-22 15:29 37.365195 -121.932637 317 49ft 57kts
02-Feb-22 15:30 37.368556 -121.930459 134 45ft 10kts
02-Feb-22 15:31 37.368562 -121.929431 47 44ft 0kts
02-Feb-22 15:32 37.368562 -121.929431 47 44ft 0kts
02-Feb-22 15:33 37.368562 -121.929431 47 44ft 0kts
02-Feb-22 15:34 37.368562 -121.929431 47 44ft 0kts
02-Feb-22 15:35 37.368562 -121.929431 47 44ft 0kts
02-Feb-22 15:36 37.368562 -121.929431 47 44ft 0kts
02-Feb-22 15:37 37.368562 -121.929431 47 44ft 0kts

Navigation Log

Ident Type
Flight plan parsing failed, navigation log unavailable